sensor_id;sensor_type;location;lat;lon;timestamp;P1;durP1;ratioP1;P2;durP2;ratioP2
4021;SDS011;2025;48.260;16.432;2023-10-09T00:02:08;6.72;;;1.02;;
4021;SDS011;2025;48.260;16.432;2023-10-09T00:04:36;6.47;;;2.70;;
4021;SDS011;2025;48.260;16.432;2023-10-09T00:07:06;5.45;;;1.15;;
4021;SDS011;2025;48.260;16.432;2023-10-09T00:09:34;4.95;;;0.75;;
4021;SDS011;2025;48.260;16.432;2023-10-09T00:12:13;4.60;;;1.27;;
4021;SDS011;2025;48.260;16.432;2023-10-09T00:14:41;6.28;;;1.00;;
4021;SDS011;2025;48.260;16.432;2023-10-09T00:17:14;4.95;;;1.52;;
4021;SDS011;2025;48.260;16.432;2023-10-09T00:19:44;6.53;;;0.95;;
4021;SDS011;2025;48.260;16.432;2023-10-09T00:22:15;5.68;;;1.10;;
4021;SDS011;2025;48.260;16.432;2023-10-09T00:24:55;5.70;;;1.08;;
4021;SDS011;2025;48.260;16.432;2023-10-09T00:27:41;5.28;;;0.80;;
4021;SDS011;2025;48.260;16.432;2023-10-09T00:30:12;6.88;;;1.33;;
4021;SDS011;2025;48.260;16.432;2023-10-09T00:32:43;4.65;;;0.77;;
4021;SDS011;2025;48.260;16.432;2023-10-09T00:35:24;4.53;;;1.15;;
4021;SDS011;2025;48.260;16.432;2023-10-09T00:38:19;4.70;;;0.85;;
4021;SDS011;2025;48.260;16.432;2023-10-09T00:40:58;5.10;;;1.00;;
4021;SDS011;2025;48.260;16.432;2023-10-09T00:43:37;4.75;;;1.02;;
4021;SDS011;2025;48.260;16.432;2023-10-09T00:46:08;5.57;;;1.10;;
4021;SDS011;2025;48.260;16.432;2023-10-09T00:48:49;5.40;;;1.55;;
4021;SDS011;2025;48.260;16.432;2023-10-09T00:51:19;4.60;;;1.08;;
4021;SDS011;2025;48.260;16.432;2023-10-09T00:53:49;4.95;;;0.85;;
4021;SDS011;2025;48.260;16.432;2023-10-09T00:56:18;6.15;;;1.05;;
4021;SDS011;2025;48.260;16.432;2023-10-09T00:58:56;4.82;;;0.93;;
4021;SDS011;2025;48.260;16.432;2023-10-09T01:01:33;4.85;;;0.85;;
4021;SDS011;2025;48.260;16.432;2023-10-09T01:04:04;6.43;;;1.02;;
4021;SDS011;2025;48.260;16.432;2023-10-09T01:06:33;5.97;;;0.90;;
4021;SDS011;2025;48.260;16.432;2023-10-09T01:09:08;5.20;;;1.27;;
4021;SDS011;2025;48.260;16.432;2023-10-09T01:11:36;4.50;;;0.95;;
4021;SDS011;2025;48.260;16.432;2023-10-09T01:14:15;4.15;;;0.93;;
4021;SDS011;2025;48.260;16.432;2023-10-09T01:16:42;5.75;;;1.23;;
4021;SDS011;2025;48.260;16.432;2023-10-09T01:19:09;4.32;;;2.55;;
4021;SDS011;2025;48.260;16.432;2023-10-09T01:21:49;5.85;;;0.98;;
4021;SDS011;2025;48.260;16.432;2023-10-09T01:24:17;5.47;;;0.98;;
4021;SDS011;2025;48.260;16.432;2023-10-09T01:26:48;6.03;;;0.85;;
4021;SDS011;2025;48.260;16.432;2023-10-09T01:29:19;4.55;;;0.75;;
4021;SDS011;2025;48.260;16.432;2023-10-09T01:31:47;6.97;;;1.05;;
4021;SDS011;2025;48.260;16.432;2023-10-09T01:34:20;4.95;;;0.90;;
4021;SDS011;2025;48.260;16.432;2023-10-09T01:36:59;5.63;;;1.38;;
4021;SDS011;2025;48.260;16.432;2023-10-09T01:39:31;5.45;;;1.15;;
4021;SDS011;2025;48.260;16.432;2023-10-09T01:42:05;4.18;;;0.70;;
4021;SDS011;2025;48.260;16.432;2023-10-09T01:44:32;6.10;;;1.08;;
4021;SDS011;2025;48.260;16.432;2023-10-09T01:47:01;5.95;;;1.20;;
4021;SDS011;2025;48.260;16.432;2023-10-09T01:49:32;5.03;;;1.05;;
4021;SDS011;2025;48.260;16.432;2023-10-09T01:52:02;5.55;;;1.30;;
4021;SDS011;2025;48.260;16.432;2023-10-09T01:54:36;6.93;;;1.35;;
4021;SDS011;2025;48.260;16.432;2023-10-09T01:57:03;4.43;;;0.80;;
4021;SDS011;2025;48.260;16.432;2023-10-09T01:59:37;4.55;;;0.82;;
4021;SDS011;2025;48.260;16.432;2023-10-09T02:02:09;5.00;;;0.70;;
4021;SDS011;2025;48.260;16.432;2023-10-09T02:04:54;4.05;;;0.93;;
4021;SDS011;2025;48.260;16.432;2023-10-09T02:07:32;7.38;;;1.10;;
4021;SDS011;2025;48.260;16.432;2023-10-09T02:10:07;4.05;;;0.82;;
4021;SDS011;2025;48.260;16.432;2023-10-09T02:12:46;3.70;;;0.82;;
4021;SDS011;2025;48.260;16.432;2023-10-09T02:15:17;3.83;;;0.65;;
4021;SDS011;2025;48.260;16.432;2023-10-09T02:18:04;6.65;;;1.17;;
4021;SDS011;2025;48.260;16.432;2023-10-09T02:20:42;4.93;;;0.70;;
4021;SDS011;2025;48.260;16.432;2023-10-09T02:23:10;4.53;;;0.90;;
4021;SDS011;2025;48.260;16.432;2023-10-09T02:25:39;5.78;;;1.42;;
4021;SDS011;2025;48.260;16.432;2023-10-09T02:28:08;5.43;;;1.13;;
4021;SDS011;2025;48.260;16.432;2023-10-09T02:30:42;4.70;;;0.90;;
4021;SDS011;2025;48.260;16.432;2023-10-09T02:33:12;4.70;;;1.23;;
4021;SDS011;2025;48.260;16.432;2023-10-09T02:35:43;4.68;;;0.95;;
4021;SDS011;2025;48.260;16.432;2023-10-09T02:38:16;5.00;;;1.30;;
4021;SDS011;2025;48.260;16.432;2023-10-09T02:40:49;5.32;;;0.90;;
4021;SDS011;2025;48.260;16.432;2023-10-09T02:43:42;3.90;;;1.17;;
4021;SDS011;2025;48.260;16.432;2023-10-09T02:46:11;5.28;;;0.95;;
4021;SDS011;2025;48.260;16.432;2023-10-09T02:48:43;5.28;;;1.02;;
4021;SDS011;2025;48.260;16.432;2023-10-09T02:51:15;5.57;;;1.60;;
4021;SDS011;2025;48.260;16.432;2023-10-09T02:53:57;5.05;;;1.00;;
4021;SDS011;2025;48.260;16.432;2023-10-09T02:56:34;4.72;;;1.00;;
4021;SDS011;2025;48.260;16.432;2023-10-09T02:59:08;5.40;;;1.13;;
4021;SDS011;2025;48.260;16.432;2023-10-09T03:01:36;5.22;;;0.68;;
4021;SDS011;2025;48.260;16.432;2023-10-09T03:04:05;5.40;;;1.05;;
4021;SDS011;2025;48.260;16.432;2023-10-09T03:06:36;5.32;;;0.95;;
4021;SDS011;2025;48.260;16.432;2023-10-09T03:09:08;4.75;;;0.95;;
4021;SDS011;2025;48.260;16.432;2023-10-09T03:11:44;5.00;;;1.08;;
4021;SDS011;2025;48.260;16.432;2023-10-09T03:14:13;5.10;;;2.28;;
4021;SDS011;2025;48.260;16.432;2023-10-09T03:16:41;5.15;;;0.93;;
4021;SDS011;2025;48.260;16.432;2023-10-09T03:19:08;4.78;;;0.90;;
4021;SDS011;2025;48.260;16.432;2023-10-09T03:21:36;4.15;;;0.95;;
4021;SDS011;2025;48.260;16.432;2023-10-09T03:24:03;4.68;;;0.82;;
4021;SDS011;2025;48.260;16.432;2023-10-09T03:26:31;6.25;;;1.00;;
4021;SDS011;2025;48.260;16.432;2023-10-09T03:29:00;5.43;;;0.90;;
4021;SDS011;2025;48.260;16.432;2023-10-09T03:31:31;5.75;;;1.80;;
4021;SDS011;2025;48.260;16.432;2023-10-09T03:33:58;5.68;;;1.10;;
4021;SDS011;2025;48.260;16.432;2023-10-09T03:36:26;4.47;;;1.00;;
4021;SDS011;2025;48.260;16.432;2023-10-09T03:38:54;4.63;;;0.82;;
4021;SDS011;2025;48.260;16.432;2023-10-09T03:41:23;5.60;;;1.08;;
4021;SDS011;2025;48.260;16.432;2023-10-09T03:43:51;5.25;;;2.42;;
4021;SDS011;2025;48.260;16.432;2023-10-09T03:46:20;6.35;;;0.80;;
4021;SDS011;2025;48.260;16.432;2023-10-09T03:48:51;4.88;;;1.30;;
4021;SDS011;2025;48.260;16.432;2023-10-09T03:51:21;5.47;;;1.30;;
4021;SDS011;2025;48.260;16.432;2023-10-09T03:53:48;3.95;;;0.80;;
4021;SDS011;2025;48.260;16.432;2023-10-09T03:56:18;6.97;;;1.45;;
4021;SDS011;2025;48.260;16.432;2023-10-09T03:58:46;5.88;;;1.38;;
4021;SDS011;2025;48.260;16.432;2023-10-09T04:01:15;6.53;;;1.55;;
4021;SDS011;2025;48.260;16.432;2023-10-09T04:03:49;6.82;;;2.50;;
4021;SDS011;2025;48.260;16.432;2023-10-09T04:06:20;7.35;;;3.63;;
4021;SDS011;2025;48.260;16.432;2023-10-09T04:08:47;5.22;;;0.93;;
4021;SDS011;2025;48.260;16.432;2023-10-09T04:11:16;4.95;;;1.13;;
4021;SDS011;2025;48.260;16.432;2023-10-09T04:13:48;6.72;;;1.15;;
4021;SDS011;2025;48.260;16.432;2023-10-09T04:16:17;6.20;;;1.13;;
4021;SDS011;2025;48.260;16.432;2023-10-09T04:19:01;6.72;;;1.05;;
4021;SDS011;2025;48.260;16.432;2023-10-09T04:21:36;9.50;;;2.05;;
4021;SDS011;2025;48.260;16.432;2023-10-09T04:26:48;5.00;;;1.05;;
4021;SDS011;2025;48.260;16.432;2023-10-09T04:29:21;5.50;;;1.33;;
4021;SDS011;2025;48.260;16.432;2023-10-09T04:31:52;6.53;;;2.58;;
4021;SDS011;2025;48.260;16.432;2023-10-09T04:34:23;6.85;;;1.48;;
4021;SDS011;2025;48.260;16.432;2023-10-09T04:36:54;4.70;;;1.23;;
4021;SDS011;2025;48.260;16.432;2023-10-09T04:39:25;6.20;;;1.27;;
4021;SDS011;2025;48.260;16.432;2023-10-09T04:42:03;7.10;;;1.33;;
4021;SDS011;2025;48.260;16.432;2023-10-09T04:44:47;5.80;;;1.08;;
4021;SDS011;2025;48.260;16.432;2023-10-09T04:47:40;5.18;;;1.20;;
4021;SDS011;2025;48.260;16.432;2023-10-09T04:50:16;8.30;;;2.50;;
4021;SDS011;2025;48.260;16.432;2023-10-09T04:52:57;4.60;;;1.10;;
4021;SDS011;2025;48.260;16.432;2023-10-09T04:55:43;6.63;;;2.63;;
4021;SDS011;2025;48.260;16.432;2023-10-09T04:58:19;5.43;;;2.47;;
4021;SDS011;2025;48.260;16.432;2023-10-09T05:00:51;6.00;;;2.50;;
4021;SDS011;2025;48.260;16.432;2023-10-09T05:03:38;4.78;;;0.98;;
4021;SDS011;2025;48.260;16.432;2023-10-09T05:06:20;4.68;;;1.67;;
4021;SDS011;2025;48.260;16.432;2023-10-09T05:08:46;5.63;;;1.10;;
4021;SDS011;2025;48.260;16.432;2023-10-09T05:11:14;5.28;;;1.00;;
4021;SDS011;2025;48.260;16.432;2023-10-09T05:13:57;6.30;;;1.13;;
4021;SDS011;2025;48.260;16.432;2023-10-09T05:16:37;8.95;;;1.10;;
4021;SDS011;2025;48.260;16.432;2023-10-09T05:19:09;5.65;;;1.35;;
4021;SDS011;2025;48.260;16.432;2023-10-09T05:21:55;6.78;;;1.75;;
4021;SDS011;2025;48.260;16.432;2023-10-09T05:24:23;5.95;;;0.90;;
4021;SDS011;2025;48.260;16.432;2023-10-09T05:26:52;6.63;;;1.30;;
4021;SDS011;2025;48.260;16.432;2023-10-09T05:29:37;7.90;;;1.10;;
4021;SDS011;2025;48.260;16.432;2023-10-09T05:32:13;8.77;;;1.73;;
4021;SDS011;2025;48.260;16.432;2023-10-09T05:34:53;7.05;;;1.35;;
4021;SDS011;2025;48.260;16.432;2023-10-09T05:37:42;6.60;;;1.70;;
4021;SDS011;2025;48.260;16.432;2023-10-09T05:40:16;5.40;;;1.27;;
4021;SDS011;2025;48.260;16.432;2023-10-09T05:45:25;6.57;;;1.13;;
4021;SDS011;2025;48.260;16.432;2023-10-09T05:48:09;5.85;;;1.02;;
4021;SDS011;2025;48.260;16.432;2023-10-09T05:50:50;6.13;;;1.30;;
4021;SDS011;2025;48.260;16.432;2023-10-09T05:53:36;6.15;;;1.38;;
4021;SDS011;2025;48.260;16.432;2023-10-09T05:56:16;5.57;;;1.40;;
4021;SDS011;2025;48.260;16.432;2023-10-09T05:59:00;5.70;;;1.20;;
4021;SDS011;2025;48.260;16.432;2023-10-09T06:04:28;4.65;;;1.27;;
4021;SDS011;2025;48.260;16.432;2023-10-09T06:07:14;6.57;;;1.35;;
4021;SDS011;2025;48.260;16.432;2023-10-09T06:09:50;7.55;;;1.55;;
4021;SDS011;2025;48.260;16.432;2023-10-09T06:12:17;6.97;;;1.20;;
4021;SDS011;2025;48.260;16.432;2023-10-09T06:15:05;4.32;;;1.27;;
4021;SDS011;2025;48.260;16.432;2023-10-09T06:17:57;5.55;;;1.30;;
4021;SDS011;2025;48.260;16.432;2023-10-09T06:20:45;6.43;;;1.27;;
4021;SDS011;2025;48.260;16.432;2023-10-09T06:26:36;5.70;;;0.93;;
4021;SDS011;2025;48.260;16.432;2023-10-09T06:29:06;4.25;;;0.90;;
4021;SDS011;2025;48.260;16.432;2023-10-09T06:31:55;6.93;;;0.93;;
4021;SDS011;2025;48.260;16.432;2023-10-09T06:34:41;5.80;;;1.02;;
4021;SDS011;2025;48.260;16.432;2023-10-09T06:37:11;4.80;;;1.05;;
4021;SDS011;2025;48.260;16.432;2023-10-09T06:39:59;6.80;;;1.02;;
4021;SDS011;2025;48.260;16.432;2023-10-09T06:42:49;3.97;;;0.88;;
4021;SDS011;2025;48.260;16.432;2023-10-09T06:45:20;5.03;;;1.10;;
4021;SDS011;2025;48.260;16.432;2023-10-09T06:47:53;4.95;;;0.70;;
4021;SDS011;2025;48.260;16.432;2023-10-09T06:50:21;6.88;;;1.42;;
4021;SDS011;2025;48.260;16.432;2023-10-09T06:52:52;4.40;;;0.70;;
4021;SDS011;2025;48.260;16.432;2023-10-09T06:55:39;5.95;;;1.02;;
4021;SDS011;2025;48.260;16.432;2023-10-09T06:58:17;8.40;;;0.98;;
4021;SDS011;2025;48.260;16.432;2023-10-09T07:00:48;6.40;;;0.77;;
4021;SDS011;2025;48.260;16.432;2023-10-09T07:03:40;4.57;;;0.93;;
4021;SDS011;2025;48.260;16.432;2023-10-09T07:06:17;6.72;;;0.82;;
4021;SDS011;2025;48.260;16.432;2023-10-09T07:08:50;5.53;;;0.70;;
4021;SDS011;2025;48.260;16.432;2023-10-09T07:11:41;5.18;;;1.00;;
4021;SDS011;2025;48.260;16.432;2023-10-09T07:14:27;4.28;;;0.73;;
4021;SDS011;2025;48.260;16.432;2023-10-09T07:17:11;4.38;;;0.95;;
4021;SDS011;2025;48.260;16.432;2023-10-09T07:20:05;3.78;;;0.73;;
4021;SDS011;2025;48.260;16.432;2023-10-09T07:22:40;4.10;;;0.75;;
4021;SDS011;2025;48.260;16.432;2023-10-09T07:25:21;4.25;;;0.85;;
4021;SDS011;2025;48.260;16.432;2023-10-09T07:28:08;4.53;;;0.70;;
4021;SDS011;2025;48.260;16.432;2023-10-09T07:30:45;10.05;;;1.63;;
4021;SDS011;2025;48.260;16.432;2023-10-09T07:33:12;3.53;;;0.57;;
4021;SDS011;2025;48.260;16.432;2023-10-09T07:35:56;6.30;;;0.98;;
4021;SDS011;2025;48.260;16.432;2023-10-09T07:38:24;3.33;;;0.52;;
4021;SDS011;2025;48.260;16.432;2023-10-09T07:40:54;4.70;;;0.85;;
4021;SDS011;2025;48.260;16.432;2023-10-09T07:43:25;4.65;;;0.80;;
4021;SDS011;2025;48.260;16.432;2023-10-09T07:45:55;3.97;;;0.45;;
4021;SDS011;2025;48.260;16.432;2023-10-09T07:48:40;3.40;;;0.70;;
4021;SDS011;2025;48.260;16.432;2023-10-09T07:51:17;3.88;;;0.75;;
4021;SDS011;2025;48.260;16.432;2023-10-09T07:53:48;4.00;;;0.70;;
4021;SDS011;2025;48.260;16.432;2023-10-09T07:56:22;6.88;;;0.85;;
4021;SDS011;2025;48.260;16.432;2023-10-09T07:58:49;6.20;;;1.02;;
4021;SDS011;2025;48.260;16.432;2023-10-09T08:01:18;3.65;;;0.60;;
4021;SDS011;2025;48.260;16.432;2023-10-09T08:04:01;5.50;;;0.80;;
4021;SDS011;2025;48.260;16.432;2023-10-09T08:06:36;4.90;;;0.60;;
4021;SDS011;2025;48.260;16.432;2023-10-09T08:09:08;4.75;;;0.70;;
4021;SDS011;2025;48.260;16.432;2023-10-09T08:11:53;4.82;;;0.68;;
4021;SDS011;2025;48.260;16.432;2023-10-09T08:14:39;4.60;;;2.80;;
4021;SDS011;2025;48.260;16.432;2023-10-09T08:17:09;4.05;;;0.70;;
4021;SDS011;2025;48.260;16.432;2023-10-09T08:19:46;4.90;;;0.80;;
4021;SDS011;2025;48.260;16.432;2023-10-09T08:22:23;5.40;;;0.70;;
4021;SDS011;2025;48.260;16.432;2023-10-09T08:25:08;6.00;;;0.60;;
4021;SDS011;2025;48.260;16.432;2023-10-09T08:27:51;4.50;;;1.10;;
4021;SDS011;2025;48.260;16.432;2023-10-09T08:30:22;7.03;;;0.95;;
4021;SDS011;2025;48.260;16.432;2023-10-09T08:33:07;7.10;;;0.80;;
4021;SDS011;2025;48.260;16.432;2023-10-09T08:35:48;4.18;;;0.82;;
4021;SDS011;2025;48.260;16.432;2023-10-09T08:38:16;3.83;;;0.90;;
4021;SDS011;2025;48.260;16.432;2023-10-09T08:40:48;4.80;;;0.93;;
4021;SDS011;2025;48.260;16.432;2023-10-09T08:43:17;6.30;;;0.70;;
4021;SDS011;2025;48.260;16.432;2023-10-09T08:45:45;5.75;;;0.88;;
4021;SDS011;2025;48.260;16.432;2023-10-09T08:48:14;4.97;;;0.75;;
4021;SDS011;2025;48.260;16.432;2023-10-09T08:50:43;5.00;;;0.80;;
4021;SDS011;2025;48.260;16.432;2023-10-09T08:53:11;6.30;;;1.02;;
4021;SDS011;2025;48.260;16.432;2023-10-09T08:55:39;6.10;;;0.98;;
4021;SDS011;2025;48.260;16.432;2023-10-09T08:58:07;5.55;;;2.10;;
4021;SDS011;2025;48.260;16.432;2023-10-09T09:00:43;4.65;;;0.95;;
4021;SDS011;2025;48.260;16.432;2023-10-09T09:03:14;4.47;;;0.60;;
4021;SDS011;2025;48.260;16.432;2023-10-09T09:05:43;7.57;;;0.75;;
4021;SDS011;2025;48.260;16.432;2023-10-09T09:08:22;4.95;;;1.38;;
4021;SDS011;2025;48.260;16.432;2023-10-09T09:10:57;4.55;;;1.40;;
4021;SDS011;2025;48.260;16.432;2023-10-09T09:13:36;4.93;;;1.25;;
4021;SDS011;2025;48.260;16.432;2023-10-09T09:16:12;6.97;;;1.63;;
4021;SDS011;2025;48.260;16.432;2023-10-09T09:18:50;6.60;;;2.08;;
4021;SDS011;2025;48.260;16.432;2023-10-09T09:21:26;5.88;;;2.05;;
4021;SDS011;2025;48.260;16.432;2023-10-09T09:23:54;5.10;;;1.83;;
4021;SDS011;2025;48.260;16.432;2023-10-09T09:26:33;6.00;;;1.90;;
4021;SDS011;2025;48.260;16.432;2023-10-09T09:29:03;5.18;;;1.00;;
4021;SDS011;2025;48.260;16.432;2023-10-09T09:31:32;6.72;;;2.13;;
4021;SDS011;2025;48.260;16.432;2023-10-09T09:34:06;7.03;;;1.17;;
4021;SDS011;2025;48.260;16.432;2023-10-09T09:39:21;7.60;;;0.85;;
4021;SDS011;2025;48.260;16.432;2023-10-09T09:41:54;4.40;;;0.93;;
4021;SDS011;2025;48.260;16.432;2023-10-09T09:44:30;5.85;;;1.85;;
4021;SDS011;2025;48.260;16.432;2023-10-09T09:46:59;4.18;;;1.00;;
4021;SDS011;2025;48.260;16.432;2023-10-09T09:49:28;5.32;;;1.00;;
4021;SDS011;2025;48.260;16.432;2023-10-09T09:52:01;5.63;;;1.10;;
4021;SDS011;2025;48.260;16.432;2023-10-09T09:54:35;5.47;;;1.10;;
4021;SDS011;2025;48.260;16.432;2023-10-09T09:57:03;8.13;;;1.65;;
4021;SDS011;2025;48.260;16.432;2023-10-09T09:59:36;6.60;;;1.67;;
4021;SDS011;2025;48.260;16.432;2023-10-09T10:02:16;6.85;;;1.65;;
4021;SDS011;2025;48.260;16.432;2023-10-09T10:04:51;8.57;;;1.15;;
4021;SDS011;2025;48.260;16.432;2023-10-09T10:07:22;5.18;;;0.95;;
4021;SDS011;2025;48.260;16.432;2023-10-09T10:09:51;7.10;;;2.35;;
4021;SDS011;2025;48.260;16.432;2023-10-09T10:21:48;7.15;;;0.85;;
4021;SDS011;2025;48.260;16.432;2023-10-09T10:27:20;8.65;;;1.95;;
4021;SDS011;2025;48.260;16.432;2023-10-09T10:33:02;9.10;;;2.40;;
4021;SDS011;2025;48.260;16.432;2023-10-09T10:35:39;7.00;;;2.17;;
4021;SDS011;2025;48.260;16.432;2023-10-09T10:38:27;5.80;;;2.22;;
4021;SDS011;2025;48.260;16.432;2023-10-09T10:41:09;7.38;;;1.70;;
4021;SDS011;2025;48.260;16.432;2023-10-09T10:43:36;8.07;;;2.17;;
4021;SDS011;2025;48.260;16.432;2023-10-09T10:46:20;8.30;;;2.33;;
4021;SDS011;2025;48.260;16.432;2023-10-09T10:48:56;7.68;;;2.55;;
4021;SDS011;2025;48.260;16.432;2023-10-09T10:51:27;6.50;;;2.63;;
4021;SDS011;2025;48.260;16.432;2023-10-09T10:54:05;5.32;;;1.30;;
4021;SDS011;2025;48.260;16.432;2023-10-09T10:56:50;8.05;;;1.65;;
4021;SDS011;2025;48.260;16.432;2023-10-09T10:59:18;6.68;;;1.58;;
4021;SDS011;2025;48.260;16.432;2023-10-09T11:01:48;7.38;;;1.10;;
4021;SDS011;2025;48.260;16.432;2023-10-09T11:04:39;7.32;;;1.23;;
4021;SDS011;2025;48.260;16.432;2023-10-09T11:07:08;6.97;;;1.17;;
4021;SDS011;2025;48.260;16.432;2023-10-09T11:09:45;5.47;;;1.30;;
4021;SDS011;2025;48.260;16.432;2023-10-09T11:12:43;7.47;;;3.05;;
4021;SDS011;2025;48.260;16.432;2023-10-09T11:15:31;7.85;;;2.03;;
4021;SDS011;2025;48.260;16.432;2023-10-09T11:18:09;9.07;;;2.28;;
4021;SDS011;2025;48.260;16.432;2023-10-09T11:20:44;9.02;;;1.92;;
4021;SDS011;2025;48.260;16.432;2023-10-09T11:23:22;7.90;;;1.73;;
4021;SDS011;2025;48.260;16.432;2023-10-09T11:26:03;8.20;;;2.13;;
4021;SDS011;2025;48.260;16.432;2023-10-09T11:29:05;10.65;;;2.65;;
4021;SDS011;2025;48.260;16.432;2023-10-09T11:31:38;7.05;;;1.95;;
4021;SDS011;2025;48.260;16.432;2023-10-09T11:34:17;9.73;;;1.83;;
4021;SDS011;2025;48.260;16.432;2023-10-09T11:36:54;6.75;;;1.85;;
4021;SDS011;2025;48.260;16.432;2023-10-09T11:39:24;10.43;;;1.65;;
4021;SDS011;2025;48.260;16.432;2023-10-09T11:42:05;8.65;;;2.28;;
4021;SDS011;2025;48.260;16.432;2023-10-09T11:44:37;7.18;;;1.77;;
4021;SDS011;2025;48.260;16.432;2023-10-09T11:47:04;8.90;;;2.03;;
4021;SDS011;2025;48.260;16.432;2023-10-09T11:49:56;8.23;;;1.67;;
4021;SDS011;2025;48.260;16.432;2023-10-09T11:55:34;5.82;;;1.20;;
4021;SDS011;2025;48.260;16.432;2023-10-09T11:58:04;5.95;;;1.70;;
4021;SDS011;2025;48.260;16.432;2023-10-09T12:00:32;9.85;;;2.78;;
4021;SDS011;2025;48.260;16.432;2023-10-09T12:05:39;9.93;;;3.33;;
4021;SDS011;2025;48.260;16.432;2023-10-09T12:08:09;7.40;;;1.80;;
4021;SDS011;2025;48.260;16.432;2023-10-09T12:10:39;8.30;;;2.90;;
4021;SDS011;2025;48.260;16.432;2023-10-09T12:13:07;7.47;;;2.08;;
4021;SDS011;2025;48.260;16.432;2023-10-09T12:15:34;7.00;;;1.80;;
4021;SDS011;2025;48.260;16.432;2023-10-09T12:18:05;9.55;;;2.67;;
4021;SDS011;2025;48.260;16.432;2023-10-09T12:20:40;10.07;;;2.25;;
4021;SDS011;2025;48.260;16.432;2023-10-09T12:23:07;9.35;;;2.80;;
4021;SDS011;2025;48.260;16.432;2023-10-09T12:25:40;9.65;;;2.00;;
4021;SDS011;2025;48.260;16.432;2023-10-09T12:28:11;11.55;;;2.45;;
4021;SDS011;2025;48.260;16.432;2023-10-09T12:30:39;10.20;;;2.20;;
4021;SDS011;2025;48.260;16.432;2023-10-09T12:33:07;12.95;;;3.60;;
4021;SDS011;2025;48.260;16.432;2023-10-09T12:35:38;12.75;;;3.65;;
4021;SDS011;2025;48.260;16.432;2023-10-09T12:38:05;9.88;;;3.20;;
4021;SDS011;2025;48.260;16.432;2023-10-09T12:40:35;12.85;;;3.13;;
4021;SDS011;2025;48.260;16.432;2023-10-09T12:43:04;10.55;;;3.08;;
4021;SDS011;2025;48.260;16.432;2023-10-09T12:45:42;10.18;;;2.40;;
4021;SDS011;2025;48.260;16.432;2023-10-09T12:48:10;8.38;;;2.63;;
4021;SDS011;2025;48.260;16.432;2023-10-09T12:50:37;10.48;;;2.90;;
4021;SDS011;2025;48.260;16.432;2023-10-09T12:53:07;11.48;;;2.80;;
4021;SDS011;2025;48.260;16.432;2023-10-09T12:55:35;9.65;;;2.95;;
4021;SDS011;2025;48.260;16.432;2023-10-09T12:58:05;10.73;;;3.35;;
4021;SDS011;2025;48.260;16.432;2023-10-09T13:00:34;8.77;;;2.63;;
4021;SDS011;2025;48.260;16.432;2023-10-09T13:03:06;12.10;;;3.65;;
4021;SDS011;2025;48.260;16.432;2023-10-09T13:05:45;12.82;;;2.45;;
4021;SDS011;2025;48.260;16.432;2023-10-09T13:08:20;9.23;;;2.50;;
4021;SDS011;2025;48.260;16.432;2023-10-09T13:10:49;11.27;;;2.97;;
4021;SDS011;2025;48.260;16.432;2023-10-09T13:13:25;8.98;;;2.53;;
4021;SDS011;2025;48.260;16.432;2023-10-09T13:16:05;9.75;;;2.40;;
4021;SDS011;2025;48.260;16.432;2023-10-09T13:18:34;7.68;;;1.65;;
4021;SDS011;2025;48.260;16.432;2023-10-09T13:21:02;10.73;;;2.78;;
4021;SDS011;2025;48.260;16.432;2023-10-09T13:23:30;10.25;;;2.90;;
4021;SDS011;2025;48.260;16.432;2023-10-09T13:26:04;10.35;;;2.95;;
4021;SDS011;2025;48.260;16.432;2023-10-09T13:28:44;9.05;;;2.45;;
4021;SDS011;2025;48.260;16.432;2023-10-09T13:31:13;11.30;;;2.38;;
4021;SDS011;2025;48.260;16.432;2023-10-09T13:33:45;8.30;;;1.85;;
4021;SDS011;2025;48.260;16.432;2023-10-09T13:36:12;11.88;;;3.15;;
4021;SDS011;2025;48.260;16.432;2023-10-09T13:41:12;11.20;;;4.88;;
4021;SDS011;2025;48.260;16.432;2023-10-09T13:43:39;14.68;;;3.33;;
4021;SDS011;2025;48.260;16.432;2023-10-09T13:46:08;12.57;;;4.00;;
4021;SDS011;2025;48.260;16.432;2023-10-09T13:48:36;12.50;;;3.05;;
4021;SDS011;2025;48.260;16.432;2023-10-09T13:51:07;7.22;;;2.55;;
4021;SDS011;2025;48.260;16.432;2023-10-09T13:53:39;9.65;;;2.42;;
4021;SDS011;2025;48.260;16.432;2023-10-09T13:56:10;10.85;;;3.25;;
4021;SDS011;2025;48.260;16.432;2023-10-09T13:58:40;9.25;;;3.17;;
4021;SDS011;2025;48.260;16.432;2023-10-09T14:01:08;10.40;;;3.13;;
4021;SDS011;2025;48.260;16.432;2023-10-09T14:03:35;10.77;;;3.47;;
4021;SDS011;2025;48.260;16.432;2023-10-09T14:06:04;10.25;;;3.45;;
4021;SDS011;2025;48.260;16.432;2023-10-09T14:08:39;13.68;;;3.50;;
4021;SDS011;2025;48.260;16.432;2023-10-09T14:11:07;9.75;;;3.45;;
4021;SDS011;2025;48.260;16.432;2023-10-09T14:13:38;8.40;;;3.55;;
4021;SDS011;2025;48.260;16.432;2023-10-09T14:16:06;9.52;;;2.85;;
4021;SDS011;2025;48.260;16.432;2023-10-09T14:18:49;11.98;;;4.60;;
4021;SDS011;2025;48.260;16.432;2023-10-09T14:21:18;12.10;;;2.72;;
4021;SDS011;2025;48.260;16.432;2023-10-09T14:23:48;10.35;;;4.53;;
4021;SDS011;2025;48.260;16.432;2023-10-09T14:26:15;13.45;;;3.85;;
4021;SDS011;2025;48.260;16.432;2023-10-09T14:28:44;9.00;;;4.38;;
4021;SDS011;2025;48.260;16.432;2023-10-09T14:31:11;10.98;;;3.28;;
4021;SDS011;2025;48.260;16.432;2023-10-09T14:33:40;11.60;;;4.57;;
4021;SDS011;2025;48.260;16.432;2023-10-09T14:36:08;10.90;;;3.00;;
4021;SDS011;2025;48.260;16.432;2023-10-09T14:38:39;9.60;;;2.45;;
4021;SDS011;2025;48.260;16.432;2023-10-09T14:41:09;10.80;;;2.72;;
4021;SDS011;2025;48.260;16.432;2023-10-09T14:43:37;11.30;;;2.90;;
4021;SDS011;2025;48.260;16.432;2023-10-09T14:46:04;10.35;;;3.08;;
4021;SDS011;2025;48.260;16.432;2023-10-09T14:48:36;8.38;;;2.40;;
4021;SDS011;2025;48.260;16.432;2023-10-09T14:51:03;12.07;;;4.28;;
4021;SDS011;2025;48.260;16.432;2023-10-09T14:53:32;10.02;;;2.47;;
4021;SDS011;2025;48.260;16.432;2023-10-09T14:55:59;8.45;;;3.75;;
4021;SDS011;2025;48.260;16.432;2023-10-09T14:58:30;12.43;;;2.90;;
4021;SDS011;2025;48.260;16.432;2023-10-09T15:01:06;8.68;;;2.33;;
4021;SDS011;2025;48.260;16.432;2023-10-09T15:03:37;8.63;;;4.00;;
4021;SDS011;2025;48.260;16.432;2023-10-09T15:06:04;10.95;;;2.67;;
4021;SDS011;2025;48.260;16.432;2023-10-09T15:08:36;8.35;;;3.67;;
4021;SDS011;2025;48.260;16.432;2023-10-09T15:11:03;9.35;;;3.03;;
4021;SDS011;2025;48.260;16.432;2023-10-09T15:13:32;10.25;;;3.33;;
4021;SDS011;2025;48.260;16.432;2023-10-09T15:16:00;6.47;;;2.00;;
4021;SDS011;2025;48.260;16.432;2023-10-09T15:18:29;9.15;;;1.70;;
4021;SDS011;2025;48.260;16.432;2023-10-09T15:20:58;7.68;;;1.38;;
4021;SDS011;2025;48.260;16.432;2023-10-09T15:23:25;12.57;;;1.88;;
4021;SDS011;2025;48.260;16.432;2023-10-09T15:25:52;7.47;;;1.27;;
4021;SDS011;2025;48.260;16.432;2023-10-09T15:28:19;11.60;;;1.80;;
4021;SDS011;2025;48.260;16.432;2023-10-09T15:30:49;10.32;;;1.80;;
4021;SDS011;2025;48.260;16.432;2023-10-09T15:33:16;8.55;;;2.28;;
4021;SDS011;2025;48.260;16.432;2023-10-09T15:35:44;9.10;;;2.00;;
4021;SDS011;2025;48.260;16.432;2023-10-09T15:38:12;10.27;;;2.00;;
4021;SDS011;2025;48.260;16.432;2023-10-09T15:40:41;10.13;;;1.88;;
4021;SDS011;2025;48.260;16.432;2023-10-09T15:43:08;11.88;;;2.67;;
4021;SDS011;2025;48.260;16.432;2023-10-09T15:45:41;11.40;;;2.53;;
4021;SDS011;2025;48.260;16.432;2023-10-09T15:48:11;11.30;;;2.58;;
4021;SDS011;2025;48.260;16.432;2023-10-09T15:50:38;11.77;;;2.53;;
4021;SDS011;2025;48.260;16.432;2023-10-09T15:53:13;12.05;;;2.17;;
4021;SDS011;2025;48.260;16.432;2023-10-09T15:55:42;11.50;;;2.75;;
4021;SDS011;2025;48.260;16.432;2023-10-09T15:58:09;8.77;;;2.25;;
4021;SDS011;2025;48.260;16.432;2023-10-09T16:00:37;12.40;;;2.55;;
4021;SDS011;2025;48.260;16.432;2023-10-09T16:03:04;12.23;;;2.88;;
4021;SDS011;2025;48.260;16.432;2023-10-09T16:05:36;12.25;;;2.88;;
4021;SDS011;2025;48.260;16.432;2023-10-09T16:08:06;13.65;;;3.20;;
4021;SDS011;2025;48.260;16.432;2023-10-09T16:10:33;9.65;;;3.08;;
4021;SDS011;2025;48.260;16.432;2023-10-09T16:13:01;14.65;;;3.35;;
4021;SDS011;2025;48.260;16.432;2023-10-09T16:15:29;12.52;;;4.13;;